sensor_id;sensor_type;location;lat;lon;timestamp;pressure;altitude;pressure_sealevel;temperature;humidity
32733;BME280;11867;51.198;11.966;2023-02-20T00:00:45;101211.22;;;6.92;95.25
32733;BME280;11867;51.198;11.966;2023-02-20T00:01:49;101207.19;;;6.71;96.00
32733;BME280;11867;51.198;11.966;2023-02-20T00:02:51;101208.16;;;6.77;96.01
32733;BME280;11867;51.198;11.966;2023-02-20T00:03:54;101203.50;;;6.54;96.94
32733;BME280;11867;51.198;11.966;2023-02-20T00:04:56;101197.22;;;6.30;98.40
32733;BME280;11867;51.198;11.966;2023-02-20T00:05:58;101201.66;;;6.24;99.37
32733;BME280;11867;51.198;11.966;2023-02-20T00:07:00;101199.47;;;6.44;98.65
32733;BME280;11867;51.198;11.966;2023-02-20T00:08:02;101205.25;;;6.48;98.54
32733;BME280;11867;51.198;11.966;2023-02-20T00:09:04;101204.72;;;6.81;97.33
32733;BME280;11867;51.198;11.966;2023-02-20T00:10:07;101201.75;;;6.59;97.10
32733;BME280;11867;51.198;11.966;2023-02-20T00:11:09;101207.56;;;6.75;96.93
32733;BME280;11867;51.198;11.966;2023-02-20T00:12:12;101202.34;;;6.50;97.55
32733;BME280;11867;51.198;11.966;2023-02-20T00:13:13;101204.06;;;6.44;98.58
32733;BME280;11867;51.198;11.966;2023-02-20T00:14:17;101205.75;;;6.57;97.43
32733;BME280;11867;51.198;11.966;2023-02-20T00:15:19;101204.34;;;6.78;97.47
32733;BME280;11867;51.198;11.966;2023-02-20T00:16:22;101208.16;;;6.77;96.07
32733;BME280;11867;51.198;11.966;2023-02-20T00:17:24;101202.41;;;6.31;98.21
32733;BME280;11867;51.198;11.966;2023-02-20T00:18:28;101206.41;;;6.29;99.29
32733;BME280;11867;51.198;11.966;2023-02-20T00:19:30;101203.63;;;6.47;98.90
32733;BME280;11867;51.198;11.966;2023-02-20T00:20:32;101202.47;;;6.66;97.84
32733;BME280;11867;51.198;11.966;2023-02-20T00:21:36;101195.50;;;6.59;97.33
32733;BME280;11867;51.198;11.966;2023-02-20T00:22:39;101205.69;;;6.33;98.51
32733;BME280;11867;51.198;11.966;2023-02-20T00:23:40;101204.09;;;6.14;99.88
32733;BME280;11867;51.198;11.966;2023-02-20T00:24:43;101205.63;;;5.91;100.00
32733;BME280;11867;51.198;11.966;2023-02-20T00:25:44;101207.81;;;5.82;100.00
32733;BME280;11867;51.198;11.966;2023-02-20T00:26:48;101199.19;;;5.55;100.00
32733;BME280;11867;51.198;11.966;2023-02-20T00:27:49;101197.00;;;5.45;100.00
32733;BME280;11867;51.198;11.966;2023-02-20T00:28:52;101200.03;;;5.37;100.00
32733;BME280;11867;51.198;11.966;2023-02-20T00:29:55;101202.41;;;5.64;100.00
32733;BME280;11867;51.198;11.966;2023-02-20T00:30:57;101203.31;;;5.58;100.00
32733;BME280;11867;51.198;11.966;2023-02-20T00:31:59;101210.16;;;5.79;100.00
32733;BME280;11867;51.198;11.966;2023-02-20T00:33:03;101206.19;;;5.81;100.00
32733;BME280;11867;51.198;11.966;2023-02-20T00:34:04;101200.88;;;5.86;100.00
32733;BME280;11867;51.198;11.966;2023-02-20T00:35:08;101202.88;;;5.79;100.00
32733;BME280;11867;51.198;11.966;2023-02-20T00:36:13;101204.97;;;5.77;100.00
32733;BME280;11867;51.198;11.966;2023-02-20T00:37:16;101206.72;;;5.72;100.00
32733;BME280;11867;51.198;11.966;2023-02-20T00:38:18;101211.81;;;5.98;100.00
32733;BME280;11867;51.198;11.966;2023-02-20T00:39:20;101201.28;;;5.90;100.00
32733;BME280;11867;51.198;11.966;2023-02-20T00:40:23;101203.00;;;5.66;100.00
32733;BME280;11867;51.198;11.966;2023-02-20T00:41:26;101193.78;;;5.74;100.00
32733;BME280;11867;51.198;11.966;2023-02-20T00:42:28;101198.81;;;5.70;100.00
32733;BME280;11867;51.198;11.966;2023-02-20T00:43:30;101192.06;;;5.91;100.00
32733;BME280;11867;51.198;11.966;2023-02-20T00:44:36;101198.22;;;5.50;100.00
32733;BME280;11867;51.198;11.966;2023-02-20T00:45:40;101189.50;;;5.47;100.00
32733;BME280;11867;51.198;11.966;2023-02-20T00:46:42;101188.84;;;5.52;100.00
32733;BME280;11867;51.198;11.966;2023-02-20T00:47:44;101185.88;;;5.54;100.00
32733;BME280;11867;51.198;11.966;2023-02-20T00:48:46;101184.38;;;5.58;100.00
32733;BME280;11867;51.198;11.966;2023-02-20T00:49:49;101189.75;;;5.64;100.00
32733;BME280;11867;51.198;11.966;2023-02-20T00:50:51;101186.63;;;5.79;100.00
32733;BME280;11867;51.198;11.966;2023-02-20T00:51:54;101187.50;;;5.92;100.00
32733;BME280;11867;51.198;11.966;2023-02-20T00:52:56;101188.44;;;6.16;100.00
32733;BME280;11867;51.198;11.966;2023-02-20T00:53:58;101186.09;;;6.19;100.00
32733;BME280;11867;51.198;11.966;2023-02-20T00:55:00;101177.28;;;5.94;100.00
32733;BME280;11867;51.198;11.966;2023-02-20T00:56:03;101180.22;;;5.92;100.00
32733;BME280;11867;51.198;11.966;2023-02-20T00:57:04;101177.66;;;6.28;100.00
32733;BME280;11867;51.198;11.966;2023-02-20T00:58:07;101169.34;;;6.41;100.00
32733;BME280;11867;51.198;11.966;2023-02-20T00:59:09;101168.75;;;6.39;100.00
32733;BME280;11867;51.198;11.966;2023-02-20T01:00:17;101170.03;;;6.48;100.00
32733;BME280;11867;51.198;11.966;2023-02-20T01:01:21;101159.13;;;6.66;100.00
32733;BME280;11867;51.198;11.966;2023-02-20T01:02:25;101171.34;;;6.57;100.00
32733;BME280;11867;51.198;11.966;2023-02-20T01:03:26;101171.25;;;6.10;100.00
32733;BME280;11867;51.198;11.966;2023-02-20T01:04:29;101169.31;;;5.99;100.00
32733;BME280;11867;51.198;11.966;2023-02-20T01:05:30;101172.31;;;5.91;100.00
32733;BME280;11867;51.198;11.966;2023-02-20T01:06:33;101176.03;;;5.96;100.00
32733;BME280;11867;51.198;11.966;2023-02-20T01:07:34;101172.03;;;5.99;100.00
32733;BME280;11867;51.198;11.966;2023-02-20T01:08:37;101173.16;;;6.21;100.00
32733;BME280;11867;51.198;11.966;2023-02-20T01:09:38;101169.41;;;6.34;100.00
32733;BME280;11867;51.198;11.966;2023-02-20T01:10:41;101172.44;;;6.14;100.00
32733;BME280;11867;51.198;11.966;2023-02-20T01:11:43;101174.16;;;6.39;100.00
32733;BME280;11867;51.198;11.966;2023-02-20T01:12:46;101165.22;;;6.50;100.00
32733;BME280;11867;51.198;11.966;2023-02-20T01:13:47;101168.88;;;6.67;100.00
32733;BME280;11867;51.198;11.966;2023-02-20T01:14:50;101162.75;;;6.84;100.00
32733;BME280;11867;51.198;11.966;2023-02-20T01:15:51;101159.59;;;6.99;99.23
32733;BME280;11867;51.198;11.966;2023-02-20T01:16:55;101162.19;;;6.70;99.27
32733;BME280;11867;51.198;11.966;2023-02-20T01:17:57;101159.59;;;6.75;100.00
32733;BME280;11867;51.198;11.966;2023-02-20T01:19:00;101153.72;;;6.78;100.00
32733;BME280;11867;51.198;11.966;2023-02-20T01:20:01;101158.25;;;6.42;100.00
32733;BME280;11867;51.198;11.966;2023-02-20T01:21:04;101156.91;;;6.21;100.00
32733;BME280;11867;51.198;11.966;2023-02-20T01:22:06;101160.88;;;6.49;100.00
32733;BME280;11867;51.198;11.966;2023-02-20T01:23:10;101156.28;;;6.73;100.00
32733;BME280;11867;51.198;11.966;2023-02-20T01:24:11;101154.75;;;6.89;100.00
32733;BME280;11867;51.198;11.966;2023-02-20T01:25:14;101154.75;;;6.77;100.00
32733;BME280;11867;51.198;11.966;2023-02-20T01:26:16;101155.81;;;6.88;100.00
32733;BME280;11867;51.198;11.966;2023-02-20T01:27:19;101159.84;;;6.97;99.68
32733;BME280;11867;51.198;11.966;2023-02-20T01:28:20;101162.63;;;7.14;99.33
32733;BME280;11867;51.198;11.966;2023-02-20T01:29:23;101160.97;;;7.25;98.78
32733;BME280;11867;51.198;11.966;2023-02-20T01:30:24;101154.63;;;6.84;99.79
32733;BME280;11867;51.198;11.966;2023-02-20T01:31:27;101157.25;;;6.79;100.00
32733;BME280;11867;51.198;11.966;2023-02-20T01:32:30;101161.94;;;6.95;99.56
32733;BME280;11867;51.198;11.966;2023-02-20T01:33:33;101165.84;;;6.99;99.55
32733;BME280;11867;51.198;11.966;2023-02-20T01:34:34;101162.09;;;6.89;99.92
32733;BME280;11867;51.198;11.966;2023-02-20T01:35:37;101162.78;;;6.72;100.00
32733;BME280;11867;51.198;11.966;2023-02-20T01:36:44;101163.94;;;7.00;100.00
32733;BME280;11867;51.198;11.966;2023-02-20T01:37:47;101159.66;;;7.27;99.53
32733;BME280;11867;51.198;11.966;2023-02-20T01:38:49;101161.94;;;6.83;99.87
32733;BME280;11867;51.198;11.966;2023-02-20T01:39:51;101159.69;;;7.04;99.90
32733;BME280;11867;51.198;11.966;2023-02-20T01:40:54;101158.75;;;7.22;99.44
32733;BME280;11867;51.198;11.966;2023-02-20T01:41:58;101156.69;;;7.41;98.16
32733;BME280;11867;51.198;11.966;2023-02-20T01:43:02;101148.13;;;7.32;97.72
32733;BME280;11867;51.198;11.966;2023-02-20T01:44:04;101143.78;;;7.19;97.75
32733;BME280;11867;51.198;11.966;2023-02-20T01:45:15;101142.38;;;7.05;98.66
32733;BME280;11867;51.198;11.966;2023-02-20T01:46:42;101146.72;;;7.18;98.87
32733;BME280;11867;51.198;11.966;2023-02-20T01:47:48;101141.75;;;7.26;98.47
32733;BME280;11867;51.198;11.966;2023-02-20T01:48:49;101139.41;;;7.30;97.95
32733;BME280;11867;51.198;11.966;2023-02-20T01:49:57;101137.78;;;7.05;98.38
32733;BME280;11867;51.198;11.966;2023-02-20T01:51:00;101140.13;;;7.14;98.69
32733;BME280;11867;51.198;11.966;2023-02-20T01:52:09;101138.97;;;7.10;99.14
32733;BME280;11867;51.198;11.966;2023-02-20T01:53:15;101142.03;;;7.01;99.37
32733;BME280;11867;51.198;11.966;2023-02-20T01:54:21;101129.16;;;7.08;99.32
32733;BME280;11867;51.198;11.966;2023-02-20T01:55:26;101139.53;;;7.12;99.01
32733;BME280;11867;51.198;11.966;2023-02-20T01:56:31;101130.09;;;7.26;98.14
32733;BME280;11867;51.198;11.966;2023-02-20T01:57:34;101126.50;;;7.37;97.51
32733;BME280;11867;51.198;11.966;2023-02-20T01:58:40;101127.97;;;7.16;98.41
32733;BME280;11867;51.198;11.966;2023-02-20T01:59:45;101123.41;;;7.05;98.49
32733;BME280;11867;51.198;11.966;2023-02-20T02:00:48;101118.25;;;6.68;100.00
32733;BME280;11867;51.198;11.966;2023-02-20T02:01:51;101119.25;;;6.32;100.00
32733;BME280;11867;51.198;11.966;2023-02-20T02:02:57;101114.31;;;6.29;100.00
32733;BME280;11867;51.198;11.966;2023-02-20T02:04:04;101114.44;;;6.34;100.00
32733;BME280;11867;51.198;11.966;2023-02-20T02:05:09;101115.97;;;6.30;100.00
32733;BME280;11867;51.198;11.966;2023-02-20T02:06:13;101114.41;;;6.22;100.00
32733;BME280;11867;51.198;11.966;2023-02-20T02:07:16;101103.91;;;6.14;100.00
32733;BME280;11867;51.198;11.966;2023-02-20T02:08:20;101104.31;;;6.41;100.00
32733;BME280;11867;51.198;11.966;2023-02-20T02:09:31;101104.66;;;6.44;100.00
32733;BME280;11867;51.198;11.966;2023-02-20T02:10:37;101096.22;;;6.41;100.00
32733;BME280;11867;51.198;11.966;2023-02-20T02:11:42;101101.97;;;6.68;100.00
32733;BME280;11867;51.198;11.966;2023-02-20T02:12:46;101101.13;;;6.91;100.00
32733;BME280;11867;51.198;11.966;2023-02-20T02:13:50;101102.75;;;7.04;100.00
32733;BME280;11867;51.198;11.966;2023-02-20T02:14:52;101098.78;;;6.71;99.57
32733;BME280;11867;51.198;11.966;2023-02-20T02:16:06;101087.38;;;5.92;100.00
32733;BME280;11867;51.198;11.966;2023-02-20T02:17:28;101093.69;;;5.55;100.00
32733;BME280;11867;51.198;11.966;2023-02-20T02:18:47;101086.50;;;5.49;100.00
32733;BME280;11867;51.198;11.966;2023-02-20T02:20:21;101087.00;;;5.58;100.00
32733;BME280;11867;51.198;11.966;2023-02-20T02:21:50;101096.25;;;6.11;100.00
32733;BME280;11867;51.198;11.966;2023-02-20T02:23:23;101106.56;;;6.44;100.00
32733;BME280;11867;51.198;11.966;2023-02-20T02:25:09;101105.66;;;5.96;100.00
32733;BME280;11867;51.198;11.966;2023-02-20T02:28:21;101106.44;;;6.39;100.00
32733;BME280;11867;51.198;11.966;2023-02-20T02:29:44;101114.31;;;6.40;100.00
32733;BME280;11867;51.198;11.966;2023-02-20T02:31:45;101104.69;;;6.33;100.00
32733;BME280;11867;51.198;11.966;2023-02-20T02:33:04;101099.50;;;6.55;100.00
32733;BME280;11867;51.198;11.966;2023-02-20T02:34:33;101087.00;;;6.65;100.00
32733;BME280;11867;51.198;11.966;2023-02-20T02:36:05;101083.69;;;6.40;100.00
32733;BME280;11867;51.198;11.966;2023-02-20T02:37:17;101088.97;;;6.11;100.00
32733;BME280;11867;51.198;11.966;2023-02-20T02:38:25;101094.63;;;6.21;100.00
32733;BME280;11867;51.198;11.966;2023-02-20T02:39:40;101089.34;;;6.26;100.00
32733;BME280;11867;51.198;11.966;2023-02-20T02:40:49;101074.63;;;6.34;100.00
32733;BME280;11867;51.198;11.966;2023-02-20T02:41:59;101085.59;;;6.39;100.00
32733;BME280;11867;51.198;11.966;2023-02-20T02:43:08;101081.94;;;6.57;100.00
32733;BME280;11867;51.198;11.966;2023-02-20T02:44:17;101080.19;;;6.51;100.00
32733;BME280;11867;51.198;11.966;2023-02-20T02:45:23;101083.94;;;6.50;100.00
32733;BME280;11867;51.198;11.966;2023-02-20T02:46:34;101090.53;;;6.54;99.99
32733;BME280;11867;51.198;11.966;2023-02-20T02:47:43;101074.50;;;6.53;99.60
32733;BME280;11867;51.198;11.966;2023-02-20T02:48:51;101072.66;;;6.53;99.31
32733;BME280;11867;51.198;11.966;2023-02-20T02:49:57;101078.28;;;6.40;99.45
32733;BME280;11867;51.198;11.966;2023-02-20T02:51:07;101085.03;;;6.49;99.24
32733;BME280;11867;51.198;11.966;2023-02-20T02:52:11;101092.75;;;6.57;99.28
32733;BME280;11867;51.198;11.966;2023-02-20T02:53:34;101093.94;;;6.61;99.03
32733;BME280;11867;51.198;11.966;2023-02-20T02:54:35;101092.41;;;6.65;98.52
32733;BME280;11867;51.198;11.966;2023-02-20T02:55:38;101092.69;;;6.64;98.44
32733;BME280;11867;51.198;11.966;2023-02-20T02:56:41;101090.78;;;6.64;98.33
32733;BME280;11867;51.198;11.966;2023-02-20T02:57:45;101087.47;;;6.62;97.79
32733;BME280;11867;51.198;11.966;2023-02-20T02:58:47;101072.03;;;6.63;97.91
32733;BME280;11867;51.198;11.966;2023-02-20T02:59:53;101070.88;;;6.71;97.57
32733;BME280;11867;51.198;11.966;2023-02-20T03:00:58;101072.16;;;6.68;97.36
32733;BME280;11867;51.198;11.966;2023-02-20T03:02:04;101076.38;;;6.76;96.93
32733;BME280;11867;51.198;11.966;2023-02-20T03:03:11;101073.31;;;6.84;96.66
32733;BME280;11867;51.198;11.966;2023-02-20T03:04:15;101074.25;;;6.90;96.11
32733;BME280;11867;51.198;11.966;2023-02-20T03:05:26;101082.03;;;6.86;96.13
32733;BME280;11867;51.198;11.966;2023-02-20T03:06:43;101069.78;;;6.95;95.72
32733;BME280;11867;51.198;11.966;2023-02-20T03:07:49;101071.53;;;7.01;95.44
32733;BME280;11867;51.198;11.966;2023-02-20T03:08:55;101083.53;;;7.17;95.21
32733;BME280;11867;51.198;11.966;2023-02-20T03:10:01;101077.25;;;7.17;94.63
32733;BME280;11867;51.198;11.966;2023-02-20T03:11:07;101078.28;;;6.87;94.64
32733;BME280;11867;51.198;11.966;2023-02-20T03:12:11;101078.72;;;6.84;95.60
32733;BME280;11867;51.198;11.966;2023-02-20T03:13:14;101082.47;;;7.06;94.72
32733;BME280;11867;51.198;11.966;2023-02-20T03:14:19;101076.78;;;7.20;94.10
32733;BME280;11867;51.198;11.966;2023-02-20T03:15:45;101066.47;;;6.93;94.43
32733;BME280;11867;51.198;11.966;2023-02-20T03:16:54;101069.06;;;6.88;94.77
32733;BME280;11867;51.198;11.966;2023-02-20T03:18:04;101073.53;;;6.94;94.87
32733;BME280;11867;51.198;11.966;2023-02-20T03:19:12;101074.47;;;7.00;94.43
32733;BME280;11867;51.198;11.966;2023-02-20T03:20:18;101072.25;;;6.97;94.22
32733;BME280;11867;51.198;11.966;2023-02-20T03:21:22;101073.63;;;7.11;94.22
32733;BME280;11867;51.198;11.966;2023-02-20T03:22:32;101068.31;;;7.16;93.92
32733;BME280;11867;51.198;11.966;2023-02-20T03:23:37;101072.03;;;7.27;93.96
32733;BME280;11867;51.198;11.966;2023-02-20T03:24:43;101073.91;;;7.38;92.87
32733;BME280;11867;51.198;11.966;2023-02-20T03:25:58;101073.66;;;7.40;92.32
32733;BME280;11867;51.198;11.966;2023-02-20T03:27:02;101072.47;;;7.36;92.71
32733;BME280;11867;51.198;11.966;2023-02-20T03:28:08;101081.13;;;7.33;92.73
32733;BME280;11867;51.198;11.966;2023-02-20T03:29:15;101078.16;;;7.34;93.15
32733;BME280;11867;51.198;11.966;2023-02-20T03:30:22;101065.88;;;7.32;93.64
32733;BME280;11867;51.198;11.966;2023-02-20T03:31:30;101073.53;;;7.46;92.96
32733;BME280;11867;51.198;11.966;2023-02-20T03:32:33;101068.28;;;7.28;93.31
32733;BME280;11867;51.198;11.966;2023-02-20T03:33:58;101063.91;;;7.27;93.54
32733;BME280;11867;51.198;11.966;2023-02-20T03:35:22;101068.66;;;7.20;93.95
32733;BME280;11867;51.198;11.966;2023-02-20T03:36:47;101063.69;;;7.17;94.92
32733;BME280;11867;51.198;11.966;2023-02-20T03:38:11;101063.47;;;7.18;94.78
32733;BME280;11867;51.198;11.966;2023-02-20T03:39:35;101072.84;;;7.27;94.55
32733;BME280;11867;51.198;11.966;2023-02-20T03:40:58;101066.03;;;7.25;94.61
32733;BME280;11867;51.198;11.966;2023-02-20T03:42:20;101065.81;;;7.15;95.13
32733;BME280;11867;51.198;11.966;2023-02-20T03:43:43;101077.00;;;7.30;95.31
32733;BME280;11867;51.198;11.966;2023-02-20T03:44:47;101063.16;;;7.43;94.90
32733;BME280;11867;51.198;11.966;2023-02-20T03:45:49;101068.88;;;7.59;93.87
32733;BME280;11867;51.198;11.966;2023-02-20T03:46:54;101076.09;;;7.53;93.82
32733;BME280;11867;51.198;11.966;2023-02-20T03:48:00;101070.69;;;7.70;93.68
32733;BME280;11867;51.198;11.966;2023-02-20T03:49:05;101081.22;;;7.66;92.87
32733;BME280;11867;51.198;11.966;2023-02-20T03:50:10;101077.28;;;7.45;93.94
32733;BME280;11867;51.198;11.966;2023-02-20T03:51:32;101072.44;;;7.47;94.26
32733;BME280;11867;51.198;11.966;2023-02-20T03:52:34;101072.78;;;7.11;96.45
32733;BME280;11867;51.198;11.966;2023-02-20T03:53:37;101064.19;;;7.14;96.97
32733;BME280;11867;51.198;11.966;2023-02-20T03:54:41;101064.88;;;7.21;97.13
32733;BME280;11867;51.198;11.966;2023-02-20T03:55:44;101062.44;;;7.07;97.34
32733;BME280;11867;51.198;11.966;2023-02-20T03:56:50;101066.03;;;7.25;96.76
32733;BME280;11867;51.198;11.966;2023-02-20T03:57:58;101069.72;;;7.47;96.21
32733;BME280;11867;51.198;11.966;2023-02-20T03:59:05;101068.19;;;7.52;95.58
32733;BME280;11867;51.198;11.966;2023-02-20T04:00:12;101071.44;;;7.37;95.53
32733;BME280;11867;51.198;11.966;2023-02-20T04:01:20;101062.38;;;7.31;96.34
32733;BME280;11867;51.198;11.966;2023-02-20T04:02:26;101069.19;;;7.34;96.45
32733;BME280;11867;51.198;11.966;2023-02-20T04:03:35;101069.13;;;7.57;96.08
32733;BME280;11867;51.198;11.966;2023-02-20T04:04:43;101068.72;;;7.65;94.68
32733;BME280;11867;51.198;11.966;2023-02-20T04:05:49;101073.63;;;7.52;95.67
32733;BME280;11867;51.198;11.966;2023-02-20T04:06:53;101074.22;;;7.42;95.39
32733;BME280;11867;51.198;11.966;2023-02-20T04:07:58;101076.03;;;7.36;95.88
32733;BME280;11867;51.198;11.966;2023-02-20T04:09:06;101084.13;;;7.48;95.99
32733;BME280;11867;51.198;11.966;2023-02-20T04:10:14;101084.31;;;7.58;95.45
32733;BME280;11867;51.198;11.966;2023-02-20T04:11:21;101071.97;;;7.79;94.41
32733;BME280;11867;51.198;11.966;2023-02-20T04:12:28;101079.53;;;7.77;94.29
32733;BME280;11867;51.198;11.966;2023-02-20T04:13:32;101077.47;;;7.84;93.78
32733;BME280;11867;51.198;11.966;2023-02-20T04:14:34;101067.28;;;7.92;93.34
32733;BME280;11867;51.198;11.966;2023-02-20T04:15:38;101069.31;;;7.84;92.77
32733;BME280;11867;51.198;11.966;2023-02-20T04:16:44;101073.66;;;7.68;92.61
32733;BME280;11867;51.198;11.966;2023-02-20T04:17:51;101079.19;;;7.74;92.81
32733;BME280;11867;51.198;11.966;2023-02-20T04:18:55;101071.78;;;7.69;92.55
32733;BME280;11867;51.198;11.966;2023-02-20T04:19:58;101079.38;;;7.55;93.26
32733;BME280;11867;51.198;11.966;2023-02-20T04:21:04;101084.31;;;7.58;93.15
32733;BME280;11867;51.198;11.966;2023-02-20T04:22:13;101084.63;;;7.45;93.63
32733;BME280;11867;51.198;11.966;2023-02-20T04:23:18;101082.84;;;7.51;93.36
32733;BME280;11867;51.198;11.966;2023-02-20T04:24:27;101080.63;;;7.36;93.53
32733;BME280;11867;51.198;11.966;2023-02-20T04:25:33;101070.63;;;7.36;93.79
32733;BME280;11867;51.198;11.966;2023-02-20T04:26:37;101087.84;;;7.30;93.68
32733;BME280;11867;51.198;11.966;2023-02-20T04:27:39;101088.81;;;7.24;92.99
32733;BME280;11867;51.198;11.966;2023-02-20T04:28:42;101078.69;;;7.19;93.02
32733;BME280;11867;51.198;11.966;2023-02-20T04:29:44;101088.59;;;7.14;93.48
32733;BME280;11867;51.198;11.966;2023-02-20T04:30:47;101080.69;;;7.12;93.31
32733;BME280;11867;51.198;11.966;2023-02-20T04:31:49;101083.31;;;7.07;93.37
32733;BME280;11867;51.198;11.966;2023-02-20T04:32:52;101089.06;;;7.11;93.50
32733;BME280;11867;51.198;11.966;2023-02-20T04:33:54;101074.84;;;7.03;93.64
32733;BME280;11867;51.198;11.966;2023-02-20T04:34:56;101061.75;;;7.00;92.70
32733;BME280;11867;51.198;11.966;2023-02-20T04:35:59;101073.06;;;6.97;92.49
32733;BME280;11867;51.198;11.966;2023-02-20T04:38:22;101063.78;;;6.81;93.00
32733;BME280;11867;51.198;11.966;2023-02-20T04:39:24;101060.69;;;6.90;92.73
32733;BME280;11867;51.198;11.966;2023-02-20T04:40:27;101060.69;;;7.01;92.37
32733;BME280;11867;51.198;11.966;2023-02-20T04:41:29;101051.44;;;7.14;91.24
32733;BME280;11867;51.198;11.966;2023-02-20T04:42:31;101045.59;;;7.05;91.32
32733;BME280;11867;51.198;11.966;2023-02-20T04:43:33;101045.78;;;7.16;90.91
32733;BME280;11867;51.198;11.966;2023-02-20T04:44:35;101043.09;;;7.04;90.70
32733;BME280;11867;51.198;11.966;2023-02-20T04:45:37;101041.78;;;7.06;90.13
32733;BME280;11867;51.198;11.966;2023-02-20T04:46:39;101033.09;;;7.04;90.01
32733;BME280;11867;51.198;11.966;2023-02-20T04:47:41;101035.91;;;7.10;89.82
32733;BME280;11867;51.198;11.966;2023-02-20T04:48:43;101043.91;;;7.16;89.49
32733;BME280;11867;51.198;11.966;2023-02-20T04:49:45;101052.34;;;6.91;90.22
32733;BME280;11867;51.198;11.966;2023-02-20T04:50:47;101055.50;;;6.88;90.22
32733;BME280;11867;51.198;11.966;2023-02-20T04:51:49;101046.56;;;6.87;90.75
32733;BME280;11867;51.198;11.966;2023-02-20T04:52:52;101051.16;;;6.87;90.34
32733;BME280;11867;51.198;11.966;2023-02-20T04:53:53;101041.97;;;6.88;90.36
32733;BME280;11867;51.198;11.966;2023-02-20T04:54:58;101042.66;;;6.95;90.71
32733;BME280;11867;51.198;11.966;2023-02-20T04:56:00;101048.91;;;6.96;90.19
32733;BME280;11867;51.198;11.966;2023-02-20T04:57:06;101043.97;;;6.93;89.84
32733;BME280;11867;51.198;11.966;2023-02-20T04:58:07;101044.22;;;6.91;89.66
32733;BME280;11867;51.198;11.966;2023-02-20T04:59:10;101047.38;;;6.88;89.48
32733;BME280;11867;51.198;11.966;2023-02-20T05:00:14;101040.41;;;6.92;89.42
32733;BME280;11867;51.198;11.966;2023-02-20T05:01:16;101025.38;;;6.84;89.30
32733;BME280;11867;51.198;11.966;2023-02-20T05:02:18;101015.94;;;6.63;89.86
32733;BME280;11867;51.198;11.966;2023-02-20T05:03:20;101016.06;;;6.69;90.40
32733;BME280;11867;51.198;11.966;2023-02-20T05:04:22;101021.94;;;6.77;90.13
32733;BME280;11867;51.198;11.966;2023-02-20T05:05:26;101023.34;;;6.80;88.83
32733;BME280;11867;51.198;11.966;2023-02-20T05:06:28;101017.47;;;6.83;89.19
32733;BME280;11867;51.198;11.966;2023-02-20T05:07:30;101001.44;;;6.81;88.48
32733;BME280;11867;51.198;11.966;2023-02-20T05:08:32;101004.50;;;6.85;88.86
32733;BME280;11867;51.198;11.966;2023-02-20T05:09:34;100996.94;;;6.87;88.66
32733;BME280;11867;51.198;11.966;2023-02-20T05:10:37;100994.84;;;6.77;88.12
32733;BME280;11867;51.198;11.966;2023-02-20T05:11:40;100997.41;;;6.84;88.10
32733;BME280;11867;51.198;11.966;2023-02-20T05:12:42;100987.31;;;6.67;88.14
32733;BME280;11867;51.198;11.966;2023-02-20T05:13:44;101003.47;;;6.62;88.38
32733;BME280;11867;51.198;11.966;2023-02-20T05:14:46;100991.09;;;6.66;88.41
32733;BME280;11867;51.198;11.966;2023-02-20T05:15:48;100991.47;;;6.70;88.03
32733;BME280;11867;51.198;11.966;2023-02-20T05:16:50;100984.38;;;6.69;88.42
32733;BME280;11867;51.198;11.966;2023-02-20T05:17:52;100991.56;;;6.63;88.04
32733;BME280;11867;51.198;11.966;2023-02-20T05:18:54;100987.81;;;6.64;87.87
32733;BME280;11867;51.198;11.966;2023-02-20T05:19:56;100985.69;;;6.66;88.13
32733;BME280;11867;51.198;11.966;2023-02-20T05:20:58;100976.59;;;6.73;87.36
32733;BME280;11867;51.198;11.966;2023-02-20T05:22:14;100975.31;;;6.63;87.51
32733;BME280;11867;51.198;11.966;2023-02-20T05:23:20;100978.16;;;6.69;87.51
32733;BME280;11867;51.198;11.966;2023-02-20T05:24:22;100978.16;;;6.69;86.83
32733;BME280;11867;51.198;11.966;2023-02-20T05:25:25;100975.78;;;6.72;87.15
32733;BME280;11867;51.198;11.966;2023-02-20T05:26:28;101004.06;;;6.64;87.22
32733;BME280;11867;51.198;11.966;2023-02-20T05:27:30;100993.59;;;6.68;87.73
32733;BME280;11867;51.198;11.966;2023-02-20T05:28:32;100990.75;;;6.75;87.61
32733;BME280;11867;51.198;11.966;2023-02-20T05:29:35;100975.44;;;6.69;87.57
32733;BME280;11867;51.198;11.966;2023-02-20T05:30:36;100977.44;;;6.61;87.38
32733;BME280;11867;51.198;11.966;2023-02-20T05:31:39;100988.28;;;6.61;87.70
32733;BME280;11867;51.198;11.966;2023-02-20T05:32:41;100967.66;;;6.60;87.23
32733;BME280;11867;51.198;11.966;2023-02-20T05:33:43;100985.34;;;6.63;87.38
32733;BME280;11867;51.198;11.966;2023-02-20T05:34:45;100982.03;;;6.61;87.27
32733;BME280;11867;51.198;11.966;2023-02-20T05:35:48;100982.84;;;6.61;87.61
32733;BME280;11867;51.198;11.966;2023-02-20T05:36:50;100996.53;;;6.66;87.42
32733;BME280;11867;51.198;11.966;2023-02-20T05:37:52;100993.09;;;6.59;87.45
32733;BME280;11867;51.198;11.966;2023-02-20T05:38:54;100976.25;;;6.57;87.34
32733;BME280;11867;51.198;11.966;2023-02-20T05:39:56;100963.31;;;6.59;87.85
32733;BME280;11867;51.198;11.966;2023-02-20T05:40:59;100975.00;;;6.60;87.99
32733;BME280;11867;51.198;11.966;2023-02-20T05:42:02;100966.28;;;6.58;87.72
32733;BME280;11867;51.198;11.966;2023-02-20T05:43:05;100985.47;;;6.56;87.55
32733;BME280;11867;51.198;11.966;2023-02-20T05:44:07;100961.09;;;6.56;87.54
32733;BME280;11867;51.198;11.966;2023-02-20T05:45:10;100960.13;;;6.62;87.49
32733;BME280;11867;51.198;11.966;2023-02-20T05:46:12;100969.19;;;6.68;86.94